Time;durP1;ratioP1;P1;durP2;ratioP2;P2;SDS_P1;SDS_P2;PMS_P1;PMS_P2;Temp;Humidity;BMP_temperature;BMP_pressure;BME280_temperature;BME280_humidity;BME280_pressure;Samples;Min_cycle;Max_cycle;Signal;HPM_P1;HPM_P2
2021/04/18 00:02:15;;;;;;;9.20;4.50;;;;;;;;;;5116149;28;20201;-56
2021/04/18 00:04:43;;;;;;;8.18;4.35;;;;;;;;;;5115328;28;20209;-52
2021/04/18 00:07:10;;;;;;;11.32;4.70;;;;;;;;;;5115391;28;20205;-50
2021/04/18 00:12:40;;;;;;;11.90;3.60;;;;;;;;;;5113005;28;20219;-54
2021/04/18 00:15:09;;;;;;;7.63;3.70;;;;;;;;;;5114577;28;20247;-58
2021/04/18 00:17:36;;;;;;;15.98;5.00;;;;;;;;;;5115175;28;20193;-56
2021/04/18 00:20:06;;;;;;;8.82;4.20;;;;;;;;;;5113924;28;20207;-57
2021/04/18 00:22:44;;;;;;;6.45;3.33;;;;;;;;;;5115020;28;20231;-57
2021/04/18 00:25:12;;;;;;;9.57;4.53;;;;;;;;;;5115224;28;20229;-58
2021/04/18 00:27:39;;;;;;;10.85;4.35;;;;;;;;;;5112693;28;20209;-53
2021/04/18 00:30:07;;;;;;;6.57;4.05;;;;;;;;;;5114766;28;20833;-55
2021/04/18 00:32:33;;;;;;;8.07;4.20;;;;;;;;;;5115041;28;20197;-51
2021/04/18 00:35:01;;;;;;;7.15;3.95;;;;;;;;;;5114939;28;20244;-54
2021/04/18 00:37:28;;;;;;;9.23;4.57;;;;;;;;;;5114987;28;20201;-56
2021/04/18 00:39:55;;;;;;;9.40;4.00;;;;;;;;;;5114784;28;20227;-51
2021/04/18 00:42:22;;;;;;;10.27;4.13;;;;;;;;;;5114934;28;20242;-54
2021/04/18 00:44:50;;;;;;;8.23;4.57;;;;;;;;;;5125678;28;20243;-56
2021/04/18 00:47:17;;;;;;;10.90;5.10;;;;;;;;;;5135500;28;20204;-53
2021/04/18 00:49:55;;;;;;;8.90;4.00;;;;;;;;;;5135420;28;20208;-56
2021/04/18 00:52:22;;;;;;;8.80;3.80;;;;;;;;;;5135144;28;20204;-53
2021/04/18 00:54:50;;;;;;;8.15;4.18;;;;;;;;;;5135295;28;20204;-52
2021/04/18 00:57:22;;;;;;;11.88;3.63;;;;;;;;;;5134866;28;20197;-57
2021/04/18 00:59:49;;;;;;;8.45;3.28;;;;;;;;;;5134618;28;20226;-56
2021/04/18 01:02:16;;;;;;;8.13;3.28;;;;;;;;;;5136633;28;20208;-53
2021/04/18 01:04:49;;;;;;;9.68;3.75;;;;;;;;;;5138962;28;20207;-51
2021/04/18 01:07:16;;;;;;;9.15;4.30;;;;;;;;;;5139476;28;20197;-54
2021/04/18 01:09:45;;;;;;;9.00;4.22;;;;;;;;;;5138640;28;20315;-54
2021/04/18 01:12:14;;;;;;;8.05;3.53;;;;;;;;;;5139017;28;20216;-54
2021/04/18 01:14:41;;;;;;;15.10;3.85;;;;;;;;;;5138946;28;20213;-49
2021/04/18 01:17:08;;;;;;;5.75;3.15;;;;;;;;;;5139106;28;20212;-54
2021/04/18 01:19:57;;;;;;;10.60;4.05;;;;;;;;;;5138993;28;20185;-54
2021/04/18 01:22:25;;;;;;;7.60;3.92;;;;;;;;;;5121487;28;20184;-55
2021/04/18 01:24:51;;;;;;;10.95;3.83;;;;;;;;;;5138707;28;20212;-54
2021/04/18 01:30:24;;;;;;;20.15;4.63;;;;;;;;;;5139357;28;20202;-54
2021/04/18 01:32:51;;;;;;;8.00;3.88;;;;;;;;;;5138616;28;20272;-57
2021/04/18 01:35:22;;;;;;;6.65;3.88;;;;;;;;;;5120923;28;20196;-55
2021/04/18 01:37:50;;;;;;;9.18;3.55;;;;;;;;;;5136913;28;20227;-58
2021/04/18 01:40:18;;;;;;;8.57;3.75;;;;;;;;;;5138685;28;20196;-52
2021/04/18 01:42:45;;;;;;;9.23;3.85;;;;;;;;;;5139300;28;20189;-57
2021/04/18 01:45:13;;;;;;;6.85;4.25;;;;;;;;;;5139046;28;20240;-49
2021/04/18 01:48:06;;;;;;;9.50;4.35;;;;;;;;;;5139074;28;20204;-50
2021/04/18 01:50:34;;;;;;;7.50;4.03;;;;;;;;;;5139227;28;20204;-58
2021/04/18 01:53:04;;;;;;;13.85;5.22;;;;;;;;;;5139770;28;20201;-59
2021/04/18 01:55:31;;;;;;;10.45;4.50;;;;;;;;;;5138818;28;20208;-52
2021/04/18 01:57:58;;;;;;;6.97;3.45;;;;;;;;;;5139036;28;20298;-51
2021/04/18 02:00:37;;;;;;;8.10;3.58;;;;;;;;;;5138479;28;20232;-55
2021/04/18 02:03:03;;;;;;;9.30;4.50;;;;;;;;;;5138441;28;20207;-57
2021/04/18 02:05:31;;;;;;;11.98;4.10;;;;;;;;;;5138442;28;20224;-53
2021/04/18 02:08:09;;;;;;;11.25;4.57;;;;;;;;;;5139146;28;20209;-58
2021/04/18 02:10:36;;;;;;;7.30;4.00;;;;;;;;;;5138642;28;20196;-50
2021/04/18 02:13:02;;;;;;;8.55;3.90;;;;;;;;;;5138168;28;20192;-53
2021/04/18 02:15:40;;;;;;;11.27;4.68;;;;;;;;;;5138252;28;20230;-52
2021/04/18 02:18:07;;;;;;;8.15;4.13;;;;;;;;;;5137750;28;20218;-54
2021/04/18 02:20:33;;;;;;;7.78;3.33;;;;;;;;;;5137494;28;20204;-55
2021/04/18 02:23:12;;;;;;;6.25;3.95;;;;;;;;;;5137610;28;20219;-53
2021/04/18 02:25:38;;;;;;;13.23;4.25;;;;;;;;;;5137340;28;20228;-55
2021/04/18 02:28:06;;;;;;;12.05;4.68;;;;;;;;;;5138126;28;20211;-59
2021/04/18 02:30:32;;;;;;;8.85;5.40;;;;;;;;;;5137968;28;20180;-53
2021/04/18 02:32:59;;;;;;;9.55;4.47;;;;;;;;;;5137503;28;20197;-55
2021/04/18 02:35:26;;;;;;;7.28;4.35;;;;;;;;;;5137047;28;20216;-50
2021/04/18 02:37:54;;;;;;;8.30;4.60;;;;;;;;;;5137101;28;20259;-54
2021/04/18 02:40:22;;;;;;;6.78;3.67;;;;;;;;;;5137030;28;20204;-54
2021/04/18 02:42:49;;;;;;;6.88;3.63;;;;;;;;;;5137033;28;20208;-50
2021/04/18 02:45:16;;;;;;;9.25;4.03;;;;;;;;;;5137258;28;20200;-50
2021/04/18 02:47:44;;;;;;;9.60;4.53;;;;;;;;;;5137606;28;20277;-53
2021/04/18 02:50:13;;;;;;;9.80;3.90;;;;;;;;;;5137825;28;20216;-52
2021/04/18 02:52:47;;;;;;;9.70;4.10;;;;;;;;;;5137358;28;20207;-56
2021/04/18 02:55:14;;;;;;;8.85;4.63;;;;;;;;;;5137101;28;20229;-55
2021/04/18 02:57:42;;;;;;;9.82;4.30;;;;;;;;;;5137209;28;20226;-53
2021/04/18 03:03:12;;;;;;;8.88;4.35;;;;;;;;;;5136782;28;20285;-53
2021/04/18 03:05:39;;;;;;;10.10;4.10;;;;;;;;;;5137099;28;20284;-55
2021/04/18 03:08:20;;;;;;;10.90;3.75;;;;;;;;;;5137050;28;20305;-52
2021/04/18 03:10:47;;;;;;;10.35;4.95;;;;;;;;;;5118312;28;20302;-55
2021/04/18 03:13:15;;;;;;;7.95;4.55;;;;;;;;;;5136730;28;20213;-56
2021/04/18 03:15:44;;;;;;;9.23;4.00;;;;;;;;;;5137045;28;20204;-53
2021/04/18 03:18:10;;;;;;;8.70;4.78;;;;;;;;;;5136902;28;20208;-54
2021/04/18 03:20:37;;;;;;;6.68;3.95;;;;;;;;;;5136425;28;20208;-49
2021/04/18 03:23:14;;;;;;;11.05;4.25;;;;;;;;;;5136904;28;20216;-55
2021/04/18 03:25:41;;;;;;;7.45;3.58;;;;;;;;;;5135856;28;20235;-51
2021/04/18 03:28:08;;;;;;;11.82;4.75;;;;;;;;;;5137016;28;20231;-54
2021/04/18 03:30:36;;;;;;;6.90;3.60;;;;;;;;;;5136293;28;20209;-54
2021/04/18 03:33:03;;;;;;;7.35;3.92;;;;;;;;;;5136528;28;20203;-52
2021/04/18 03:35:49;;;;;;;7.93;4.00;;;;;;;;;;5136638;28;20227;-52
2021/04/18 03:38:16;;;;;;;9.27;4.07;;;;;;;;;;5136708;28;20276;-54
2021/04/18 03:40:43;;;;;;;10.07;4.57;;;;;;;;;;5136700;28;20199;-55
2021/04/18 03:43:20;;;;;;;7.88;3.83;;;;;;;;;;5137055;28;20205;-52
2021/04/18 03:45:48;;;;;;;10.88;4.07;;;;;;;;;;5110500;28;20256;-60
2021/04/18 03:48:15;;;;;;;8.85;4.70;;;;;;;;;;5096355;28;20190;-53
2021/04/18 03:50:42;;;;;;;14.82;4.55;;;;;;;;;;5095680;28;20189;-55
2021/04/18 03:53:09;;;;;;;8.93;3.53;;;;;;;;;;5096000;28;20193;-55
2021/04/18 03:58:40;;;;;;;11.50;4.53;;;;;;;;;;5094906;28;20250;-53
2021/04/18 04:01:08;;;;;;;11.98;4.10;;;;;;;;;;5095802;28;20201;-56
2021/04/18 04:03:54;;;;;;;12.65;4.20;;;;;;;;;;5096196;28;20264;-54
2021/04/18 04:06:20;;;;;;;9.40;4.00;;;;;;;;;;5110962;28;20241;-58
2021/04/18 04:08:52;;;;;;;8.80;4.13;;;;;;;;;;5115901;28;20209;-56
2021/04/18 04:11:22;;;;;;;7.97;3.42;;;;;;;;;;5115328;28;20234;-56
2021/04/18 04:13:49;;;;;;;11.18;4.82;;;;;;;;;;5113771;28;20266;-54
2021/04/18 04:16:16;;;;;;;6.72;3.70;;;;;;;;;;5115897;28;20207;-58
2021/04/18 04:19:08;;;;;;;7.70;4.35;;;;;;;;;;5115539;28;20212;-59
2021/04/18 04:21:35;;;;;;;10.45;5.05;;;;;;;;;;5115553;28;20206;-57
2021/04/18 04:24:02;;;;;;;7.72;4.15;;;;;;;;;;5115865;28;20270;-56
2021/04/18 04:26:29;;;;;;;9.45;5.20;;;;;;;;;;5116292;28;20239;-54
2021/04/18 04:28:56;;;;;;;14.18;5.32;;;;;;;;;;5115953;28;20209;-57
2021/04/18 04:31:24;;;;;;;11.80;4.80;;;;;;;;;;5115372;28;20261;-54
2021/04/18 04:33:53;;;;;;;13.57;5.28;;;;;;;;;;5115150;28;20209;-55
2021/04/18 04:36:24;;;;;;;9.60;5.57;;;;;;;;;;5117195;28;20189;-55
2021/04/18 04:38:51;;;;;;;7.97;5.70;;;;;;;;;;5119694;28;20216;-51
2021/04/18 04:41:26;;;;;;;17.20;6.97;;;;;;;;;;5119765;28;20200;-56
2021/04/18 04:43:53;;;;;;;11.05;6.10;;;;;;;;;;5119243;28;20205;-52
2021/04/18 04:46:19;;;;;;;11.48;6.50;;;;;;;;;;5119228;28;20249;-55
2021/04/18 04:48:49;;;;;;;14.63;7.00;;;;;;;;;;5119378;28;20220;-59
2021/04/18 04:51:16;;;;;;;14.43;6.50;;;;;;;;;;5119210;28;20197;-51
2021/04/18 04:53:43;;;;;;;14.93;6.70;;;;;;;;;;5118877;28;20227;-52
2021/04/18 04:56:35;;;;;;;11.30;7.70;;;;;;;;;;5119203;28;20200;-55
2021/04/18 04:59:03;;;;;;;13.93;6.35;;;;;;;;;;5119666;28;20268;-51
2021/04/18 05:01:30;;;;;;;8.13;5.50;;;;;;;;;;5119551;28;20197;-52
2021/04/18 05:03:58;;;;;;;10.57;6.63;;;;;;;;;;5118944;28;20204;-53
2021/04/18 05:06:25;;;;;;;11.65;6.25;;;;;;;;;;5118549;28;20236;-55
2021/04/18 05:08:52;;;;;;;11.98;5.53;;;;;;;;;;5118287;28;20244;-53
2021/04/18 05:11:32;;;;;;;14.20;6.55;;;;;;;;;;5118991;28;20205;-56
2021/04/18 05:13:59;;;;;;;13.60;6.90;;;;;;;;;;5118461;28;20251;-54
2021/04/18 05:16:26;;;;;;;11.00;5.95;;;;;;;;;;5118960;28;20205;-49
2021/04/18 05:19:16;;;;;;;10.95;6.32;;;;;;;;;;5118942;28;20209;-50
2021/04/18 05:21:44;;;;;;;12.52;6.00;;;;;;;;;;5119167;28;20205;-52
2021/04/18 05:24:11;;;;;;;12.10;6.60;;;;;;;;;;5119025;28;20208;-56
2021/04/18 05:26:39;;;;;;;11.20;6.10;;;;;;;;;;5118606;28;20225;-56
2021/04/18 05:29:06;;;;;;;9.25;5.38;;;;;;;;;;5118939;28;20209;-52
2021/04/18 05:31:32;;;;;;;10.02;6.38;;;;;;;;;;5118942;28;20204;-55
2021/04/18 05:34:09;;;;;;;11.85;5.80;;;;;;;;;;5119499;28;20212;-55
2021/04/18 05:36:36;;;;;;;11.18;5.93;;;;;;;;;;5119812;28;20200;-59
2021/04/18 05:39:08;;;;;;;13.20;6.68;;;;;;;;;;5118596;28;20407;-50
2021/04/18 05:41:47;;;;;;;10.15;5.45;;;;;;;;;;5113017;28;20198;-53
2021/04/18 05:44:14;;;;;;;18.25;6.65;;;;;;;;;;5108347;28;20193;-52
2021/04/18 05:46:42;;;;;;;16.65;6.95;;;;;;;;;;5117987;28;20244;-56
2021/04/18 05:49:26;;;;;;;11.35;5.70;;;;;;;;;;5117713;28;20201;-53
2021/04/18 05:51:53;;;;;;;15.10;6.38;;;;;;;;;;5116796;28;20239;-52
2021/04/18 05:54:21;;;;;;;12.02;6.40;;;;;;;;;;5118493;28;20220;-55
2021/04/18 05:57:23;;;;;;;13.60;5.90;;;;;;;;;;5118403;28;20193;-50
2021/04/18 05:59:50;;;;;;;12.20;6.90;;;;;;;;;;5116031;28;20591;-56
2021/04/18 06:02:17;;;;;;;9.55;6.13;;;;;;;;;;5117896;28;20202;-50
2021/04/18 06:05:01;;;;;;;8.60;5.75;;;;;;;;;;5117876;28;20215;-54
2021/04/18 06:07:28;;;;;;;8.82;6.03;;;;;;;;;;5117628;28;20232;-53
2021/04/18 06:09:56;;;;;;;11.38;6.32;;;;;;;;;;5117299;28;20235;-54
2021/04/18 06:12:23;;;;;;;12.05;6.40;;;;;;;;;;5117622;28;20197;-59
2021/04/18 06:14:50;;;;;;;11.02;5.85;;;;;;;;;;5117898;28;20208;-50
2021/04/18 06:17:18;;;;;;;10.20;6.70;;;;;;;;;;5117085;28;20201;-56
2021/04/18 06:19:45;;;;;;;11.85;6.70;;;;;;;;;;5117307;28;20220;-57
2021/04/18 06:22:12;;;;;;;10.18;6.00;;;;;;;;;;5117249;28;20212;-53
2021/04/18 06:24:39;;;;;;;12.05;6.32;;;;;;;;;;5117397;28;20193;-50
2021/04/18 06:27:16;;;;;;;12.27;6.72;;;;;;;;;;5116718;28;20233;-53
2021/04/18 06:29:43;;;;;;;15.00;5.88;;;;;;;;;;5117120;28;20215;-58
2021/04/18 06:32:10;;;;;;;11.80;6.35;;;;;;;;;;5117255;28;20227;-58
2021/04/18 06:34:52;;;;;;;9.82;6.00;;;;;;;;;;5116906;28;20216;-56
2021/04/18 06:37:19;;;;;;;10.77;5.93;;;;;;;;;;5116716;28;20201;-49
2021/04/18 06:39:46;;;;;;;11.15;6.50;;;;;;;;;;5116664;28;20252;-55
2021/04/18 06:42:31;;;;;;;12.35;6.95;;;;;;;;;;5116645;28;20591;-54
2021/04/18 06:45:06;;;;;;;13.23;7.55;;;;;;;;;;5116744;28;20564;-53
2021/04/18 06:47:35;;;;;;;12.55;7.00;;;;;;;;;;5116449;28;20244;-56
2021/04/18 06:50:02;;;;;;;12.50;7.40;;;;;;;;;;5115637;28;20201;-54
2021/04/18 06:52:29;;;;;;;12.63;7.72;;;;;;;;;;5116712;28;20351;-54
2021/04/18 06:58:01;;;;;;;9.77;6.22;;;;;;;;;;5116833;28;20175;-59
2021/04/18 07:00:27;;;;;;;13.88;8.20;;;;;;;;;;5117181;28;20251;-52
2021/04/18 07:03:22;;;;;;;16.27;7.70;;;;;;;;;;5116671;28;20219;-52
2021/04/18 07:05:50;;;;;;;10.90;7.53;;;;;;;;;;5098570;28;20225;-52
2021/04/18 07:08:20;;;;;;;15.75;6.97;;;;;;;;;;5116664;28;20216;-53
2021/04/18 07:10:51;;;;;;;13.15;7.80;;;;;;;;;;5116440;28;20207;-55
2021/04/18 07:13:22;;;;;;;17.30;8.02;;;;;;;;;;5116338;28;20247;-56
2021/04/18 07:15:49;;;;;;;14.60;7.65;;;;;;;;;;5116771;28;20181;-49
2021/04/18 07:18:37;;;;;;;13.98;8.95;;;;;;;;;;5116547;28;20243;-55
2021/04/18 07:21:06;;;;;;;13.73;7.85;;;;;;;;;;5116934;28;20193;-55
2021/04/18 07:23:35;;;;;;;14.15;9.50;;;;;;;;;;5117284;28;20212;-56
2021/04/18 07:26:32;;;;;;;12.98;7.80;;;;;;;;;;5117670;28;20221;-58
2021/04/18 07:29:12;;;;;;;22.08;8.88;;;;;;;;;;5114754;28;20284;-53
2021/04/18 07:31:40;;;;;;;16.85;10.00;;;;;;;;;;5116248;28;20196;-55
2021/04/18 07:34:08;;;;;;;11.45;7.70;;;;;;;;;;5116609;28;20227;-56
2021/04/18 07:36:35;;;;;;;15.85;8.80;;;;;;;;;;5116336;28;20291;-56
2021/04/18 07:39:23;;;;;;;14.05;8.05;;;;;;;;;;5116464;28;20216;-54
2021/04/18 07:41:53;;;;;;;16.02;9.18;;;;;;;;;;5115881;28;20275;-53
2021/04/18 07:44:24;;;;;;;16.27;9.35;;;;;;;;;;5116171;28;20212;-55
2021/04/18 07:46:56;;;;;;;14.98;9.63;;;;;;;;;;5116206;28;20284;-52
2021/04/18 07:49:23;;;;;;;10.98;7.30;;;;;;;;;;5116272;28;20197;-55
2021/04/18 07:51:50;;;;;;;12.17;8.07;;;;;;;;;;5115845;28;20216;-51
2021/04/18 07:54:19;;;;;;;13.90;7.70;;;;;;;;;;5115945;28;20443;-57
2021/04/18 07:56:52;;;;;;;21.13;8.53;;;;;;;;;;5107283;28;20501;-56
2021/04/18 07:59:21;;;;;;;14.13;7.83;;;;;;;;;;5108560;28;20448;-53
2021/04/18 08:02:00;;;;;;;16.20;9.37;;;;;;;;;;5113762;28;20439;-57
2021/04/18 08:04:27;;;;;;;14.17;8.43;;;;;;;;;;5096139;28;20440;-57
2021/04/18 08:06:54;;;;;;;16.70;8.53;;;;;;;;;;5107989;28;20484;-55
2021/04/18 08:09:53;;;;;;;15.57;9.03;;;;;;;;;;5115957;28;20440;-58
2021/04/18 08:12:21;;;;;;;16.83;9.67;;;;;;;;;;5098845;28;20561;-55
2021/04/18 08:14:48;;;;;;;15.10;9.17;;;;;;;;;;5096075;28;20429;-59
2021/04/18 08:17:33;;;;;;;18.20;10.70;;;;;;;;;;5095800;28;20455;-52
2021/04/18 08:20:01;;;;;;;15.83;9.80;;;;;;;;;;5094786;28;20499;-52
2021/04/18 08:22:49;;;;;;;20.93;10.67;;;;;;;;;;5112138;28;20463;-56
2021/04/18 08:25:27;;;;;;;21.10;10.60;;;;;;;;;;5114106;28;20466;-54
2021/04/18 08:28:01;;;;;;;14.60;9.40;;;;;;;;;;5099065;28;20511;-59
2021/04/18 08:30:28;;;;;;;12.47;9.10;;;;;;;;;;5099623;28;20455;-54
2021/04/18 08:33:00;;;;;;;17.60;9.80;;;;;;;;;;5114278;28;20455;-58
2021/04/18 08:35:31;;;;;;;16.57;11.00;;;;;;;;;;5110727;28;20430;-60
2021/04/18 08:38:19;;;;;;;16.10;9.63;;;;;;;;;;5108680;28;20462;-54
2021/04/18 08:40:46;;;;;;;16.30;11.07;;;;;;;;;;5101182;28;20502;-60
2021/04/18 08:43:20;;;;;;;15.07;10.00;;;;;;;;;;5101466;28;20484;-57
2021/04/18 08:46:13;;;;;;;20.60;10.13;;;;;;;;;;5105048;28;20510;-57
2021/04/18 08:48:41;;;;;;;17.03;9.20;;;;;;;;;;5106427;28;20452;-58
2021/04/18 08:51:09;;;;;;;19.00;11.20;;;;;;;;;;5093819;28;20471;-56
2021/04/18 08:56:46;;;;;;;30.03;11.63;;;;;;;;;;5103733;28;20595;-64
2021/04/18 08:59:14;;;;;;;19.07;10.40;;;;;;;;;;5114347;28;20452;-55
2021/04/18 09:02:03;;;;;;;20.63;10.50;;;;;;;;;;5114405;28;20495;-57
2021/04/18 09:04:31;;;;;;;15.10;8.97;;;;;;;;;;5107951;28;20532;-55
2021/04/18 09:06:58;;;;;;;19.40;10.83;;;;;;;;;;5112950;28;20489;-51
2021/04/18 09:09:25;;;;;;;16.27;9.20;;;;;;;;;;5114663;28;20518;-60
2021/04/18 09:11:53;;;;;;;14.67;8.67;;;;;;;;;;5115479;28;20431;-56
2021/04/18 09:17:25;;;;;;;17.60;10.00;;;;;;;;;;5114138;28;20409;-59
2021/04/18 09:19:53;;;;;;;16.97;11.40;;;;;;;;;;5114411;28;20450;-59
2021/04/18 09:22:21;;;;;;;19.70;11.17;;;;;;;;;;5113834;28;20463;-52
2021/04/18 09:24:48;;;;;;;18.10;9.37;;;;;;;;;;5118141;28;20451;-58
2021/04/18 09:27:16;;;;;;;18.73;10.63;;;;;;;;;;5117442;28;20475;-53
2021/04/18 09:29:51;;;;;;;15.07;8.60;;;;;;;;;;5117306;28;20443;-54
2021/04/18 09:32:19;;;;;;;16.70;9.07;;;;;;;;;;5118011;28;20442;-56
2021/04/18 09:34:47;;;;;;;16.73;10.17;;;;;;;;;;5117467;28;20470;-57
2021/04/18 09:37:18;;;;;;;15.43;8.73;;;;;;;;;;5118255;28;20463;-59
2021/04/18 09:39:49;;;;;;;16.10;8.70;;;;;;;;;;5109272;28;20456;-61
2021/04/18 09:42:43;;;;;;;15.13;9.10;;;;;;;;;;5097112;28;20450;-57
2021/04/18 09:45:14;;;;;;;15.07;9.37;;;;;;;;;;5112078;28;20494;-55
2021/04/18 09:47:41;;;;;;;16.47;9.50;;;;;;;;;;5115004;28;20550;-58
2021/04/18 09:50:30;;;;;;;20.23;10.33;;;;;;;;;;5105670;28;20509;-56
2021/04/18 09:53:13;;;;;;;17.53;10.67;;;;;;;;;;5113947;28;20440;-52
2021/04/18 09:55:57;;;;;;;21.33;10.17;;;;;;;;;;5104055;28;20456;-59
2021/04/18 09:58:30;;;;;;;16.27;9.33;;;;;;;;;;5099201;28;20448;-55
2021/04/18 10:00:58;;;;;;;16.60;10.37;;;;;;;;;;5100292;28;20482;-52
2021/04/18 10:03:42;;;;;;;17.27;10.50;;;;;;;;;;5117373;28;20473;-58
2021/04/18 10:06:09;;;;;;;18.17;10.93;;;;;;;;;;5115170;28;20482;-57
2021/04/18 10:08:38;;;;;;;19.33;10.60;;;;;;;;;;5116893;28;20491;-57
2021/04/18 10:11:32;;;;;;;22.75;11.13;;;;;;;;;;5116735;28;20495;-58
2021/04/18 10:13:59;;;;;;;20.52;11.70;;;;;;;;;;5129331;28;20276;-57
2021/04/18 10:16:27;;;;;;;28.80;13.15;;;;;;;;;;5137788;28;20199;-53
2021/04/18 10:19:18;;;;;;;21.88;12.23;;;;;;;;;;5137595;28;20199;-53
2021/04/18 10:21:45;;;;;;;19.35;12.95;;;;;;;;;;5137739;28;20236;-53
2021/04/18 10:24:32;;;;;;;21.00;12.82;;;;;;;;;;5137793;28;20181;-50
2021/04/18 10:27:02;;;;;;;30.33;13.35;;;;;;;;;;5137470;28;20270;-54
2021/04/18 10:29:29;;;;;;;26.77;14.25;;;;;;;;;;5137334;28;20200;-53
2021/04/18 10:31:57;;;;;;;21.38;11.93;;;;;;;;;;5137429;28;20219;-51
2021/04/18 10:34:33;;;;;;;23.45;12.73;;;;;;;;;;5137244;28;20224;-58
2021/04/18 10:37:01;;;;;;;20.88;11.68;;;;;;;;;;5121183;28;20220;-60
2021/04/18 10:39:30;;;;;;;18.33;11.63;;;;;;;;;;5116824;28;20212;-57
2021/04/18 10:42:02;;;;;;;20.65;12.23;;;;;;;;;;5116832;28;20193;-54
2021/04/18 10:44:29;;;;;;;20.35;12.77;;;;;;;;;;5117787;28;20212;-58
2021/04/18 10:46:57;;;;;;;22.57;11.90;;;;;;;;;;5116862;28;20259;-58
2021/04/18 10:49:45;;;;;;;20.40;11.75;;;;;;;;;;5116878;28;20456;-56
2021/04/18 10:52:14;;;;;;;20.43;12.03;;;;;;;;;;5117115;28;20197;-56
2021/04/18 10:54:41;;;;;;;28.27;14.43;;;;;;;;;;5115785;28;20462;-56
2021/04/18 10:57:24;;;;;;;20.90;12.37;;;;;;;;;;5116459;28;20489;-55
2021/04/18 10:59:51;;;;;;;25.27;13.10;;;;;;;;;;5114025;28;20592;-55
2021/04/18 11:02:18;;;;;;;20.33;12.07;;;;;;;;;;5116213;28;20458;-48
2021/04/18 11:04:46;;;;;;;21.47;12.03;;;;;;;;;;5116673;28;20459;-56
2021/04/18 11:07:14;;;;;;;32.50;13.10;;;;;;;;;;5115530;28;20487;-49
2021/04/18 11:09:42;;;;;;;22.70;12.03;;;;;;;;;;5115621;28;20485;-56
2021/04/18 11:12:47;;;;;;;22.60;11.17;;;;;;;;;;5116286;28;20455;-61
2021/04/18 11:15:23;;;;;;;25.63;12.93;;;;;;;;;;5111573;28;20457;-59
2021/04/18 11:17:50;;;;;;;22.07;12.03;;;;;;;;;;5116383;28;20474;-59
2021/04/18 11:20:18;;;;;;;25.37;12.83;;;;;;;;;;5116611;28;20474;-52
2021/04/18 11:22:46;;;;;;;26.10;15.60;;;;;;;;;;5115189;28;20453;-58
2021/04/18 11:25:14;;;;;;;23.33;13.10;;;;;;;;;;5116312;28;20609;-57
2021/04/18 11:27:43;;;;;;;20.30;12.93;;;;;;;;;;5115525;28;20479;-56
2021/04/18 11:30:11;;;;;;;20.00;11.90;;;;;;;;;;5115296;28;20435;-55
2021/04/18 11:32:47;;;;;;;23.37;12.03;;;;;;;;;;5115054;28;20439;-55
2021/04/18 11:35:14;;;;;;;22.40;12.37;;;;;;;;;;5113302;28;20495;-57
2021/04/18 11:37:41;;;;;;;19.60;12.00;;;;;;;;;;5115008;28;20456;-55
2021/04/18 11:40:29;;;;;;;21.37;11.43;;;;;;;;;;5116044;28;20451;-58
2021/04/18 11:42:57;;;;;;;24.07;12.80;;;;;;;;;;5113902;28;20554;-50
2021/04/18 11:45:24;;;;;;;22.63;14.10;;;;;;;;;;5114320;28;20527;-60
2021/04/18 11:47:55;;;;;;;22.47;12.23;;;;;;;;;;5114997;28;20557;-52
2021/04/18 11:50:22;;;;;;;18.77;11.33;;;;;;;;;;5114821;28;20461;-56
2021/04/18 11:52:48;;;;;;;25.13;12.43;;;;;;;;;;5114764;28;20468;-58
2021/04/18 11:55:29;;;;;;;19.93;12.77;;;;;;;;;;5114743;28;20454;-58
2021/04/18 11:57:55;;;;;;;29.50;12.73;;;;;;;;;;5114966;28;20466;-54
2021/04/18 12:00:25;;;;;;;18.60;11.10;;;;;;;;;;5115047;28;20443;-52
2021/04/18 12:02:53;;;;;;;19.40;11.57;;;;;;;;;;5115446;28;20466;-54
2021/04/18 12:05:24;;;;;;;17.17;10.40;;;;;;;;;;5114536;28;20451;-53
2021/04/18 12:07:54;;;;;;;20.87;11.47;;;;;;;;;;5112944;28;20520;-49
2021/04/18 12:10:27;;;;;;;18.30;12.30;;;;;;;;;;5107211;28;20523;-51
2021/04/18 12:12:54;;;;;;;21.10;12.93;;;;;;;;;;5113855;28;20447;-57
2021/04/18 12:15:20;;;;;;;17.00;11.10;;;;;;;;;;5114939;28;20447;-60
2021/04/18 12:17:54;;;;;;;21.33;12.87;;;;;;;;;;5114735;28;20470;-56
2021/04/18 12:20:24;;;;;;;16.60;9.70;;;;;;;;;;5114262;28;20494;-55
2021/04/18 12:22:53;;;;;;;22.17;13.43;;;;;;;;;;5114890;28;20454;-54
2021/04/18 12:25:25;;;;;;;16.60;10.40;;;;;;;;;;5114342;28;20447;-59
2021/04/18 12:27:56;;;;;;;18.43;10.63;;;;;;;;;;5114808;28;20544;-56
2021/04/18 12:30:28;;;;;;;17.47;12.10;;;;;;;;;;5115672;28;20454;-60
2021/04/18 12:33:03;;;;;;;21.03;10.70;;;;;;;;;;5115629;28;20450;-55
2021/04/18 12:35:35;;;;;;;20.63;11.30;;;;;;;;;;5116083;28;20472;-58
2021/04/18 12:38:04;;;;;;;19.43;11.30;;;;;;;;;;5115251;28;20428;-53
2021/04/18 12:40:45;;;;;;;20.60;14.03;;;;;;;;;;5113933;28;20447;-54
2021/04/18 12:43:12;;;;;;;17.47;10.80;;;;;;;;;;5101956;28;20503;-56
2021/04/18 12:45:41;;;;;;;17.43;11.57;;;;;;;;;;5106625;28;20497;-55
2021/04/18 12:48:43;;;;;;;15.40;9.60;;;;;;;;;;5113435;28;20985;-59
2021/04/18 12:51:10;;;;;;;16.90;10.37;;;;;;;;;;5127422;28;20493;-54
2021/04/18 12:53:41;;;;;;;14.50;10.43;;;;;;;;;;5135078;28;20478;-54
2021/04/18 12:56:18;;;;;;;27.47;11.70;;;;;;;;;;5120218;28;20625;-53
2021/04/18 13:04:22;;;;;;;17.90;11.57;;;;;;;;;;5114428;28;20443;-59
2021/04/18 13:06:55;;;;;;;17.70;10.80;;;;;;;;;;5118174;28;20491;-58
2021/04/18 13:09:56;;;;;;;21.67;10.67;;;;;;;;;;5118643;28;20462;-56
2021/04/18 13:12:35;;;;;;;16.37;10.40;;;;;;;;;;5113739;28;20455;-56
2021/04/18 13:15:16;;;;;;;16.70;9.53;;;;;;;;;;5117115;28;20459;-54
2021/04/18 13:17:44;;;;;;;23.93;9.90;;;;;;;;;;5116457;28;20446;-55
2021/04/18 13:20:11;;;;;;;16.17;10.57;;;;;;;;;;5117294;28;20450;-59
2021/04/18 13:22:54;;;;;;;15.40;10.97;;;;;;;;;;5117314;28;20524;-53
2021/04/18 13:25:22;;;;;;;20.57;11.63;;;;;;;;;;5116933;28;20503;-59
2021/04/18 13:27:50;;;;;;;14.87;10.13;;;;;;;;;;5117373;28;20595;-56
2021/04/18 13:30:18;;;;;;;16.57;10.27;;;;;;;;;;5110117;28;20452;-57
2021/04/18 13:32:46;;;;;;;16.17;11.17;;;;;;;;;;5095347;28;20444;-54
2021/04/18 13:35:13;;;;;;;15.63;10.83;;;;;;;;;;5109716;28;20434;-58
2021/04/18 13:37:42;;;;;;;22.20;9.80;;;;;;;;;;5115919;28;20466;-54
2021/04/18 13:40:10;;;;;;;19.53;11.30;;;;;;;;;;5116141;28;20587;-57
2021/04/18 13:42:36;;;;;;;16.10;10.83;;;;;;;;;;5117056;28;20459;-58
2021/04/18 13:45:22;;;;;;;16.47;10.70;;;;;;;;;;5116356;28;20446;-56
2021/04/18 13:47:50;;;;;;;15.10;9.70;;;;;;;;;;5114815;28;20482;-55
2021/04/18 13:50:17;;;;;;;17.47;10.60;;;;;;;;;;5116712;28;20463;-59
2021/04/18 13:52:52;;;;;;;15.03;10.00;;;;;;;;;;5116099;28;20452;-61
2021/04/18 13:55:19;;;;;;;14.20;9.23;;;;;;;;;;5117768;28;20460;-54
2021/04/18 13:57:47;;;;;;;14.77;10.13;;;;;;;;;;5116272;28;20486;-58
2021/04/18 14:00:21;;;;;;;22.33;9.90;;;;;;;;;;5116866;28;20484;-55
2021/04/18 14:02:48;;;;;;;16.30;10.33;;;;;;;;;;5115580;28;20494;-57
2021/04/18 14:05:17;;;;;;;20.70;11.37;;;;;;;;;;5116230;28;20439;-55
2021/04/18 14:07:50;;;;;;;17.10;10.50;;;;;;;;;;5116439;28;20489;-61
2021/04/18 14:10:17;;;;;;;19.50;10.57;;;;;;;;;;5116548;28;20459;-57
2021/04/18 14:12:45;;;;;;;16.20;11.27;;;;;;;;;;5116506;28;20461;-55
2021/04/18 14:15:26;;;;;;;14.97;10.13;;;;;;;;;;5117114;28;20455;-56
2021/04/18 14:17:53;;;;;;;21.40;11.10;;;;;;;;;;5115228;28;20487;-57
2021/04/18 14:20:21;;;;;;;12.83;9.43;;;;;;;;;;5117497;28;20444;-57
2021/04/18 14:23:04;;;;;;;18.10;10.87;;;;;;;;;;5117406;28;20446;-59
2021/04/18 14:25:31;;;;;;;12.13;8.00;;;;;;;;;;5116765;28;20435;-57
2021/04/18 14:27:58;;;;;;;15.73;10.57;;;;;;;;;;5108352;28;20455;-57
2021/04/18 14:30:29;;;;;;;14.87;10.70;;;;;;;;;;5117329;28;20447;-57
2021/04/18 14:32:58;;;;;;;16.57;10.90;;;;;;;;;;5104287;28;20456;-56
2021/04/18 14:35:26;;;;;;;15.93;11.10;;;;;;;;;;5109268;28;20451;-58
2021/04/18 14:38:00;;;;;;;16.10;10.63;;;;;;;;;;5116077;28;20473;-54
2021/04/18 14:40:27;;;;;;;24.57;11.83;;;;;;;;;;5115443;28;20443;-58
2021/04/18 14:42:55;;;;;;;16.90;10.63;;;;;;;;;;5116385;28;20540;-55
2021/04/18 14:45:47;;;;;;;13.00;9.90;;;;;;;;;;5115490;28;20455;-56
2021/04/18 14:48:15;;;;;;;15.13;9.80;;;;;;;;;;5116364;28;20479;-56
2021/04/18 14:50:43;;;;;;;20.57;11.93;;;;;;;;;;5115625;28;20451;-50
2021/04/18 14:53:16;;;;;;;17.17;11.47;;;;;;;;;;5115762;28;20462;-61
2021/04/18 14:55:43;;;;;;;14.87;11.10;;;;;;;;;;5115078;28;20439;-52
2021/04/18 14:58:13;;;;;;;23.97;12.43;;;;;;;;;;5115671;28;20562;-57
2021/04/18 15:00:47;;;;;;;16.70;11.97;;;;;;;;;;5115562;28;20450;-56
2021/04/18 15:03:14;;;;;;;12.93;9.93;;;;;;;;;;5115309;28;20454;-56
2021/04/18 15:05:43;;;;;;;14.70;11.07;;;;;;;;;;5114825;28;20460;-53
2021/04/18 15:08:22;;;;;;;20.90;13.57;;;;;;;;;;5115217;28;20487;-58
2021/04/18 15:10:51;;;;;;;28.50;18.73;;;;;;;;;;5113583;28;20501;-56
2021/04/18 15:13:21;;;;;;;20.27;14.07;;;;;;;;;;5115553;28;20492;-58
2021/04/18 15:15:49;;;;;;;31.00;17.27;;;;;;;;;;5110452;28;20495;-57
2021/04/18 15:18:35;;;;;;;20.87;13.83;;;;;;;;;;5115324;28;20431;-58
2021/04/18 15:24:15;;;;;;;23.17;15.57;;;;;;;;;;5113807;28;20928;-57